Time;durP1;ratioP1;P1;durP2;ratioP2;P2;SDS_P1;SDS_P2;PMS_P1;PMS_P2;Temp;Humidity;BMP_temperature;BMP_pressure;BME280_temperature;BME280_humidity;BME280_pressure;Samples;Min_cycle;Max_cycle;Signal;HPM_P1;HPM_P2
2022/09/19 00:01:18;;;;;;;6.55;1.15;;;15.70;99.90;;;;;;5031947;28;20045;-68
2022/09/19 00:04:28;;;;;;;2.13;0.60;;;15.60;99.90;;;;;;5030917;28;20060;-68
2022/09/19 00:07:32;;;;;;;2.42;0.90;;;15.60;99.90;;;;;;5031364;28;20029;-68
2022/09/19 00:10:41;;;;;;;1.15;0.70;;;15.60;99.90;;;;;;5031501;28;20052;-68
2022/09/19 00:13:48;;;;;;;2.20;0.70;;;15.60;99.90;;;;;;5031109;28;20044;-68
2022/09/19 00:16:58;;;;;;;3.28;0.93;;;15.70;99.90;;;;;;5031071;28;20061;-68
2022/09/19 00:20:40;;;;;;;3.03;1.70;;;15.70;99.90;;;;;;5031379;28;20049;-68
2022/09/19 00:35:02;;;;;;;4.00;1.25;;;14.50;99.90;;;;;;5030610;28;20052;-68
2022/09/19 00:38:06;;;;;;;2.53;1.30;;;14.60;99.90;;;;;;5030813;28;20032;-68
2022/09/19 00:45:11;;;;;;;3.08;1.40;;;14.40;99.90;;;;;;5038674;28;20060;-68
2022/09/19 00:48:34;;;;;;;4.65;1.30;;;14.30;99.90;;;;;;5030749;28;20029;-68
2022/09/19 00:51:45;;;;;;;2.35;1.55;;;14.50;99.90;;;;;;5030738;28;20060;-68
2022/09/19 00:55:08;;;;;;;2.15;1.20;;;14.50;99.90;;;;;;5030265;28;20416;-68
2022/09/19 00:58:23;;;;;;;2.75;1.30;;;14.50;99.90;;;;;;5030435;28;20068;-69
2022/09/19 01:01:28;;;;;;;2.20;1.30;;;14.40;99.90;;;;;;5031237;28;20049;-68
2022/09/19 01:04:36;;;;;;;4.72;1.45;;;14.50;99.90;;;;;;5029032;28;20044;-68
2022/09/19 01:08:15;;;;;;;3.72;1.60;;;14.60;99.90;;;;;;5030444;28;20515;-68
2022/09/19 01:11:39;;;;;;;1.92;1.20;;;14.70;99.90;;;;;;5029643;28;20048;-68
2022/09/19 01:19:26;;;;;;;4.05;0.93;;;15.00;99.90;;;;;;5029823;28;20044;-69
2022/09/19 01:22:34;;;;;;;1.70;0.82;;;15.00;99.90;;;;;;5030503;28;20412;-68
2022/09/19 01:26:31;;;;;;;2.83;0.63;;;15.10;99.90;;;;;;5028910;28;20124;-68
2022/09/19 01:30:09;;;;;;;2.58;1.45;;;15.30;99.90;;;;;;5028870;28;20334;-69
2022/09/19 01:33:20;;;;;;;3.70;1.30;;;14.70;99.90;;;;;;5034250;28;20052;-68
2022/09/19 01:37:02;;;;;;;2.67;1.85;;;14.70;99.90;;;;;;5037928;28;20504;-68
2022/09/19 01:40:08;;;;;;;3.65;1.70;;;14.20;99.90;;;;;;5028763;28;20041;-69
2022/09/19 01:43:21;;;;;;;3.60;1.60;;;13.80;99.90;;;;;;5028501;28;20048;-68
2022/09/19 01:46:48;;;;;;;3.60;1.67;;;13.80;99.90;;;;;;5029058;28;20048;-68
2022/09/19 01:50:05;;;;;;;4.07;1.67;;;13.80;99.90;;;;;;5030241;28;20041;-68
2022/09/19 01:53:46;;;;;;;5.60;1.65;;;13.80;99.90;;;;;;5028900;28;20414;-68
2022/09/19 01:57:45;;;;;;;3.97;1.63;;;13.90;99.90;;;;;;5030013;28;20512;-69
2022/09/19 02:01:19;;;;;;;2.92;1.38;;;14.20;99.90;;;;;;5029024;28;20412;-69
2022/09/19 02:09:18;;;;;;;3.30;1.40;;;14.00;99.90;;;;;;5030439;28;20056;-68
2022/09/19 02:12:31;;;;;;;8.05;1.40;;;13.80;99.90;;;;;;5029115;28;20056;-68
2022/09/19 02:15:59;;;;;;;3.75;1.60;;;13.90;99.90;;;;;;5029789;28;20053;-68
2022/09/19 02:19:07;;;;;;;3.13;1.60;;;13.80;99.90;;;;;;5028899;28;20400;-68
2022/09/19 02:22:22;;;;;;;3.78;1.38;;;13.80;99.90;;;;;;5028671;28;20041;-68
2022/09/19 02:25:33;;;;;;;3.92;1.60;;;13.80;99.90;;;;;;5029481;28;20040;-68
2022/09/19 02:28:57;;;;;;;2.22;1.50;;;13.80;99.90;;;;;;5028982;28;20504;-67
2022/09/19 02:32:04;;;;;;;4.03;1.50;;;13.80;99.90;;;;;;5028748;28;20048;-68
2022/09/19 02:36:00;;;;;;;3.33;1.55;;;13.70;99.90;;;;;;5028213;28;20048;-68
2022/09/19 02:39:31;;;;;;;7.00;1.55;;;13.70;99.90;;;;;;5035190;28;20040;-67
2022/09/19 02:46:54;;;;;;;2.97;1.70;;;13.60;99.90;;;;;;5047329;28;20060;-68
2022/09/19 02:54:23;;;;;;;4.53;1.48;;;13.40;99.90;;;;;;5032299;28;20044;-68
2022/09/19 02:57:30;;;;;;;5.57;1.65;;;13.30;99.90;;;;;;5032011;28;20317;-68
2022/09/19 03:00:38;;;;;;;2.65;1.50;;;13.20;99.90;;;;;;5032279;28;20392;-69
2022/09/19 03:04:14;;;;;;;3.58;1.50;;;13.20;99.90;;;;;;5032427;28;20052;-68
2022/09/19 03:07:50;;;;;;;5.13;1.70;;;13.20;99.90;;;;;;5032032;28;20420;-68
2022/09/19 03:10:58;;;;;;;5.07;1.58;;;13.20;99.90;;;;;;5032879;28;20045;-68
2022/09/19 03:14:32;;;;;;;3.28;1.67;;;13.20;99.90;;;;;;5031410;28;20045;-68
2022/09/19 03:17:49;;;;;;;2.95;1.88;;;13.20;99.90;;;;;;5031443;28;20037;-68
2022/09/19 03:21:16;;;;;;;5.57;1.48;;;13.00;99.90;;;;;;5032134;28;20160;-68
2022/09/19 03:24:22;;;;;;;3.55;1.77;;;13.00;99.90;;;;;;5031883;28;20535;-68
2022/09/19 03:28:06;;;;;;;5.45;1.88;;;12.80;99.90;;;;;;5031521;28;20052;-68
2022/09/19 03:31:12;;;;;;;3.33;1.50;;;12.80;99.90;;;;;;5031494;28;20048;-68
2022/09/19 03:34:19;;;;;;;7.05;2.25;;;12.70;99.90;;;;;;5030739;28;20048;-68
2022/09/19 03:41:07;;;;;;;7.60;1.80;;;12.50;99.90;;;;;;5030925;28;20053;-68
2022/09/19 03:44:13;;;;;;;3.80;1.83;;;12.50;99.90;;;;;;5030996;28;20052;-68
2022/09/19 03:47:20;;;;;;;3.30;1.83;;;12.60;99.90;;;;;;5031505;28;20511;-67
2022/09/19 03:50:42;;;;;;;2.20;1.60;;;12.50;99.90;;;;;;5030915;28;20040;-68
2022/09/19 03:53:50;;;;;;;4.82;1.95;;;12.50;99.90;;;;;;5030536;28;20048;-68
2022/09/19 03:56:57;;;;;;;5.63;1.83;;;12.50;99.90;;;;;;5031300;28;20508;-68
2022/09/19 04:00:02;;;;;;;2.83;1.75;;;12.40;99.90;;;;;;5030442;28;20040;-68
2022/09/19 04:03:10;;;;;;;5.85;1.90;;;12.20;99.90;;;;;;5031702;28;20052;-68
2022/09/19 04:06:15;;;;;;;3.83;1.90;;;12.20;99.90;;;;;;5030879;28;20044;-68
2022/09/19 04:09:19;;;;;;;3.45;1.60;;;12.20;99.90;;;;;;5031843;28;20523;-68
2022/09/19 04:15:50;;;;;;;6.25;1.77;;;12.10;99.90;;;;;;5030514;28;20048;-68
2022/09/19 04:18:55;;;;;;;8.20;2.10;;;12.00;99.90;;;;;;5030687;28;20519;-68
2022/09/19 04:22:25;;;;;;;3.25;1.73;;;12.10;99.90;;;;;;5030593;28;20040;-68
2022/09/19 04:25:48;;;;;;;5.10;1.80;;;12.20;99.90;;;;;;5030859;28;20047;-68
2022/09/19 04:33:12;;;;;;;7.63;1.88;;;12.30;99.90;;;;;;5031186;28;20503;-68
2022/09/19 04:36:16;;;;;;;5.93;1.92;;;12.40;99.90;;;;;;5030809;28;20052;-68
2022/09/19 04:39:57;;;;;;;3.65;1.60;;;12.50;99.90;;;;;;5031424;28;20060;-68
2022/09/19 04:43:05;;;;;;;4.10;1.55;;;12.50;99.90;;;;;;5030418;28;20108;-68
2022/09/19 04:46:28;;;;;;;5.03;1.73;;;12.50;99.90;;;;;;5031625;28;20064;-69
2022/09/19 04:49:41;;;;;;;4.97;1.77;;;12.40;99.90;;;;;;5031216;28;20049;-68
2022/09/19 04:52:46;;;;;;;4.93;1.60;;;12.40;99.90;;;;;;5030565;28;20045;-68
2022/09/19 04:56:10;;;;;;;3.95;1.73;;;12.40;99.90;;;;;;5030463;28;20049;-68
2022/09/19 04:59:16;;;;;;;8.88;1.88;;;12.40;99.90;;;;;;5031321;28;20048;-68
2022/09/19 05:02:39;;;;;;;4.65;1.70;;;11.00;99.90;;;;;;5030326;28;20380;-68
2022/09/19 05:09:46;;;;;;;3.10;1.80;;;12.40;99.90;;;;;;5011435;28;20045;-68
2022/09/19 05:12:51;;;;;;;5.45;1.77;;;12.50;99.90;;;;;;5011573;28;20060;-68
2022/09/19 05:15:56;;;;;;;4.25;1.60;;;12.60;99.90;;;;;;5022028;28;20045;-68
2022/09/19 05:19:00;;;;;;;5.25;2.10;;;12.60;99.90;;;;;;5010806;28;20065;-68
2022/09/19 05:22:04;;;;;;;6.53;2.33;;;12.70;99.90;;;;;;5022065;28;20060;-68
2022/09/19 05:25:09;;;;;;;3.60;1.75;;;12.80;99.90;;;;;;5010298;28;20072;-68
2022/09/19 05:28:13;;;;;;;7.25;2.08;;;12.90;99.90;;;;;;5021971;28;20056;-67
2022/09/19 05:31:19;;;;;;;3.92;1.92;;;12.90;99.90;;;;;;5021526;28;20053;-68
2022/09/19 05:34:53;;;;;;;9.48;2.08;;;13.00;99.90;;;;;;5009868;28;20049;-68
2022/09/19 05:38:17;;;;;;;5.88;2.00;;;13.00;99.90;;;;;;5010024;28;20049;-68
2022/09/19 05:41:44;;;;;;;4.18;1.85;;;13.10;99.90;;;;;;5013839;28;20041;-68
2022/09/19 05:45:12;;;;;;;3.72;2.38;;;13.20;99.90;;;;;;5018202;28;20049;-68
2022/09/19 05:48:37;;;;;;;4.40;2.25;;;13.30;99.90;;;;;;5021432;28;20069;-68
2022/09/19 05:51:42;;;;;;;9.43;2.17;;;13.40;99.90;;;;;;5009811;28;20455;-68
2022/09/19 05:54:52;;;;;;;6.25;2.50;;;13.40;99.90;;;;;;5020474;28;20436;-68
2022/09/19 05:58:35;;;;;;;5.95;2.10;;;13.60;99.90;;;;;;5009475;28;20044;-68
2022/09/19 06:01:40;;;;;;;4.20;1.77;;;13.50;99.90;;;;;;5020790;28;20044;-68
2022/09/19 06:05:04;;;;;;;6.82;2.13;;;13.60;99.90;;;;;;5011564;28;20050;-68
2022/09/19 06:08:11;;;;;;;6.47;3.05;;;13.70;99.90;;;;;;5026750;28;20511;-68
2022/09/19 06:11:15;;;;;;;9.20;2.25;;;13.70;99.90;;;;;;5027926;28;20052;-68
2022/09/19 06:17:49;;;;;;;6.68;2.42;;;13.70;99.90;;;;;;5032901;28;20060;-68
2022/09/19 06:20:56;;;;;;;4.97;2.40;;;13.90;99.90;;;;;;5019208;28;20048;-68
2022/09/19 06:24:29;;;;;;;6.03;2.28;;;13.90;99.90;;;;;;5032677;28;20048;-69
2022/09/19 06:27:33;;;;;;;4.20;2.25;;;14.00;99.90;;;;;;5032647;28;20056;-68
2022/09/19 06:30:37;;;;;;;4.55;2.30;;;14.10;99.90;;;;;;5031610;28;20503;-68
2022/09/19 06:34:02;;;;;;;4.35;2.10;;;14.20;99.90;;;;;;5017874;28;20036;-68
2022/09/19 06:37:33;;;;;;;4.93;2.20;;;14.20;99.90;;;;;;5032116;28;20496;-68
2022/09/19 06:40:38;;;;;;;6.40;2.33;;;14.40;99.90;;;;;;5001626;28;20049;-69
2022/09/19 06:44:03;;;;;;;3.90;2.33;;;14.80;99.90;;;;;;5043102;28;20048;-68
2022/09/19 06:47:35;;;;;;;4.45;2.40;;;15.10;99.90;;;;;;5032935;28;20040;-68
2022/09/19 06:50:53;;;;;;;5.72;2.15;;;15.10;99.90;;;;;;5027991;28;20040;-68
2022/09/19 06:54:00;;;;;;;3.95;1.85;;;15.00;99.90;;;;;;5031814;28;20053;-68
2022/09/19 06:57:04;;;;;;;6.22;2.40;;;15.00;99.90;;;;;;5012783;28;20053;-68
2022/09/19 07:00:26;;;;;;;5.65;1.98;;;15.00;99.90;;;;;;5031828;28;20049;-68
2022/09/19 07:03:35;;;;;;;3.65;1.73;;;15.10;99.90;;;;;;5032009;28;20425;-69
2022/09/19 07:06:40;;;;;;;5.80;2.00;;;15.30;99.90;;;;;;5020404;28;20419;-68
2022/09/19 07:09:50;;;;;;;8.90;2.20;;;16.10;99.90;;;;;;5031671;28;20041;-68
2022/09/19 07:12:58;;;;;;;4.90;2.50;;;16.50;99.90;;;;;;5012448;28;20041;-69
2022/09/19 07:16:04;;;;;;;6.85;2.55;;;18.30;99.90;;;;;;5011985;28;20053;-68
2022/09/19 07:23:00;;;;;;;7.82;2.63;;;19.30;99.90;;;;;;5031553;28;20047;-69
2022/09/19 07:26:46;;;;;;;8.05;2.83;;;19.90;99.90;;;;;;5031353;28;20052;-69
2022/09/19 07:30:30;;;;;;;6.95;2.70;;;21.50;99.90;;;;;;5031640;28;20666;-68
2022/09/19 07:33:34;;;;;;;8.35;2.55;;;21.90;99.90;;;;;;5030692;28;20052;-68
2022/09/19 07:37:16;;;;;;;12.30;3.30;;;21.10;99.90;;;;;;5031248;28;20040;-69
2022/09/19 07:40:28;;;;;;;10.10;3.22;;;20.50;99.90;;;;;;5011190;28;20041;-68
2022/09/19 07:43:59;;;;;;;11.90;3.75;;;20.30;99.90;;;;;;5039001;28;20044;-68
2022/09/19 07:51:08;;;;;;;7.82;3.67;;;20.60;99.90;;;;;;5032296;28;20436;-69
2022/09/19 07:54:30;;;;;;;8.90;3.70;;;21.00;99.90;;;;;;5031474;28;20044;-68
2022/09/19 08:01:01;;;;;;;7.50;3.08;;;20.80;99.90;;;;;;5031921;28;20121;-68
2022/09/19 08:04:23;;;;;;;8.15;3.30;;;22.70;99.90;;;;;;5030893;28;20040;-69
2022/09/19 08:11:02;;;;;;;9.63;3.10;;;28.50;95.20;;;;;;5025963;28;20040;-68
2022/09/19 08:14:06;;;;;;;11.90;3.63;;;29.80;92.90;;;;;;5030987;28;20044;-69
2022/09/19 08:17:11;;;;;;;7.32;3.13;;;31.20;91.00;;;;;;5030202;28;20056;-68
2022/09/19 08:20:38;;;;;;;6.65;2.72;;;31.70;90.50;;;;;;5025795;28;20044;-69
2022/09/19 08:23:41;;;;;;;6.13;2.78;;;30.10;90.00;;;;;;5030890;28;20052;-68
2022/09/19 08:30:47;;;;;;;8.10;3.30;;;27.80;90.70;;;;;;5031679;28;20052;-68
2022/09/19 08:33:52;;;;;;;9.43;3.42;;;28.20;90.50;;;;;;5009910;28;20049;-68
2022/09/19 08:37:00;;;;;;;7.22;3.20;;;26.20;91.90;;;;;;5009693;28;20053;-67
2022/09/19 08:43:47;;;;;;;10.68;3.55;;;30.10;89.00;;;;;;5021385;28;20404;-68
2022/09/19 08:47:13;;;;;;;6.57;3.30;;;28.80;88.50;;;;;;5010216;28;20056;-68
2022/09/19 08:50:23;;;;;;;7.82;3.50;;;29.70;88.40;;;;;;5010459;28;20052;-68
2022/09/19 08:53:36;;;;;;;8.48;3.70;;;27.00;90.80;;;;;;5020592;28;20056;-68
2022/09/19 08:56:43;;;;;;;7.07;2.97;;;29.20;90.40;;;;;;5010333;28;20061;-68
2022/09/19 09:00:08;;;;;;;8.18;3.63;;;29.90;89.20;;;;;;5009896;28;20057;-68
2022/09/19 09:03:42;;;;;;;6.72;3.35;;;30.30;88.30;;;;;;5009809;28;20044;-68
2022/09/19 09:07:18;;;;;;;8.82;2.88;;;30.20;88.40;;;;;;5010474;28;20052;-68
2022/09/19 09:10:53;;;;;;;6.97;2.80;;;30.70;86.50;;;;;;5010017;28;20053;-68
2022/09/19 09:14:11;;;;;;;8.18;3.35;;;30.20;88.20;;;;;;5009027;28;20125;-68
2022/09/19 09:17:48;;;;;;;5.90;2.90;;;31.10;85.60;;;;;;5021654;28;20053;-68
2022/09/19 09:21:03;;;;;;;6.55;3.08;;;34.50;83.80;;;;;;5009949;28;20046;-67
2022/09/19 09:24:16;;;;;;;4.15;2.60;;;36.00;80.40;;;;;;5021093;28;20339;-68
2022/09/19 09:27:55;;;;;;;5.57;2.10;;;37.80;76.50;;;;;;5010213;28;20052;-68
2022/09/19 09:31:27;;;;;;;5.78;2.58;;;37.80;74.60;;;;;;5021070;28;20389;-68
2022/09/19 09:34:58;;;;;;;6.25;2.70;;;40.10;72.60;;;;;;5009302;28;20052;-68
2022/09/19 09:38:15;;;;;;;4.22;1.90;;;38.60;71.40;;;;;;5009927;28;20468;-69
2022/09/19 09:41:45;;;;;;;7.88;2.30;;;36.10;70.30;;;;;;5020763;28;20077;-68
2022/09/19 09:45:16;;;;;;;5.65;2.00;;;30.90;78.10;;;;;;5009483;28;20041;-68
2022/09/19 09:48:34;;;;;;;4.13;2.20;;;28.80;82.50;;;;;;5008974;28;20053;-67
2022/09/19 09:52:14;;;;;;;5.15;2.20;;;27.30;86.20;;;;;;5009176;28;20052;-68
2022/09/19 10:03:41;;;;;;;7.25;1.95;;;26.70;90.40;;;;;;5025230;28;20036;-67
2022/09/19 10:07:13;;;;;;;5.05;1.60;;;27.60;90.00;;;;;;5029874;28;20523;-68
2022/09/19 10:10:21;;;;;;;5.25;1.98;;;28.20;88.40;;;;;;5009489;28;20069;-67
2022/09/19 10:14:12;;;;;;;7.63;1.90;;;27.70;88.90;;;;;;5026636;28;20045;-68
2022/09/19 10:17:19;;;;;;;2.88;1.27;;;29.70;88.10;;;;;;5010180;28;20615;-68
2022/09/19 10:20:52;;;;;;;4.78;1.20;;;31.80;84.10;;;;;;5029269;28;20440;-67
2022/09/19 10:24:00;;;;;;;3.70;1.02;;;31.60;84.80;;;;;;5028385;28;20041;-68
2022/09/19 10:27:33;;;;;;;2.78;1.08;;;29.40;86.70;;;;;;5019227;28;20049;-68
2022/09/19 10:30:55;;;;;;;3.88;1.30;;;29.40;86.70;;;;;;5029412;28;20388;-68
2022/09/19 10:34:15;;;;;;;3.33;1.10;;;29.20;87.30;;;;;;5006332;28;20044;-68
2022/09/19 10:37:40;;;;;;;7.85;2.08;;;28.90;89.10;;;;;;5009832;28;20049;-68
2022/09/19 10:40:58;;;;;;;3.53;1.42;;;28.80;89.20;;;;;;5009287;28;20049;-68
2022/09/19 10:44:40;;;;;;;4.32;1.13;;;28.80;88.70;;;;;;5013998;28;20041;-68
2022/09/19 10:47:47;;;;;;;3.80;1.00;;;28.70;89.60;;;;;;5029290;28;20045;-68
2022/09/19 10:55:16;;;;;;;4.78;1.33;;;27.50;90.60;;;;;;5020468;28;20053;-68
2022/09/19 10:58:27;;;;;;;3.15;1.20;;;27.00;91.20;;;;;;5028705;28;20048;-68
2022/09/19 11:02:08;;;;;;;4.95;1.58;;;27.10;92.00;;;;;;5031791;28;20486;-69
2022/09/19 11:05:27;;;;;;;5.25;0.95;;;28.00;90.90;;;;;;5021577;28;20037;-67
2022/09/19 11:08:42;;;;;;;4.32;1.60;;;28.50;90.10;;;;;;5032501;28;20199;-68
2022/09/19 11:11:47;;;;;;;5.35;1.23;;;29.20;90.40;;;;;;5032113;28;20134;-68
2022/09/19 11:15:16;;;;;;;2.33;0.75;;;30.40;87.90;;;;;;5032434;28;20037;-68
2022/09/19 11:18:36;;;;;;;4.57;1.33;;;30.60;87.60;;;;;;5031932;28;20052;-68
2022/09/19 11:22:12;;;;;;;3.00;1.02;;;30.50;86.80;;;;;;5031779;28;20047;-68
2022/09/19 11:26:12;;;;;;;4.43;1.10;;;30.80;86.60;;;;;;5031484;28;20400;-68
2022/09/19 11:29:41;;;;;;;3.30;0.80;;;33.80;82.90;;;;;;5031182;28;20041;-69
2022/09/19 11:33:07;;;;;;;2.53;0.90;;;37.10;79.10;;;;;;5031775;28;20052;-69
2022/09/19 11:37:25;;;;;;;3.88;0.77;;;39.30;73.90;;;;;;5028230;28;20064;-68
2022/09/19 11:40:39;;;;;;;5.43;1.13;;;35.30;74.50;;;;;;5028688;28;20049;-68
2022/09/19 11:43:56;;;;;;;6.05;1.02;;;32.00;79.40;;;;;;5030204;28;20048;-68
2022/09/19 11:51:00;;;;;;;2.47;0.80;;;37.00;74.70;;;;;;5038482;28;20064;-67
2022/09/19 11:54:07;;;;;;;1.17;0.63;;;40.00;72.10;;;;;;5028938;28;20044;-68
2022/09/19 11:57:58;;;;;;;2.53;0.90;;;38.70;70.50;;;;;;5031524;28;20065;-68
2022/09/19 12:01:26;;;;;;;3.95;1.00;;;36.10;73.30;;;;;;5029842;28;20040;-68
2022/09/19 12:04:55;;;;;;;4.28;1.38;;;32.70;76.60;;;;;;5030168;28;20064;-68
2022/09/19 12:11:49;;;;;;;1.42;0.80;;;31.20;80.10;;;;;;5033496;28;20045;-69
2022/09/19 12:15:22;;;;;;;4.40;1.10;;;34.60;75.90;;;;;;5029110;28;20037;-68
2022/09/19 12:18:36;;;;;;;2.10;1.08;;;31.20;78.90;;;;;;5025554;28;20048;-68
2022/09/19 12:22:27;;;;;;;4.47;1.10;;;31.40;77.50;;;;;;5030111;28;20460;-68
2022/09/19 12:25:55;;;;;;;6.20;1.20;;;28.50;83.10;;;;;;5027093;28;20302;-68
2022/09/19 12:30:05;;;;;;;3.85;0.90;;;27.70;85.10;;;;;;5024688;28;20036;-68
2022/09/19 12:33:49;;;;;;;5.57;1.05;;;30.30;82.20;;;;;;5016298;28;20052;-69
2022/09/19 12:37:01;;;;;;;2.17;0.80;;;34.60;78.20;;;;;;5029291;28;20052;-68
2022/09/19 12:40:14;;;;;;;3.03;1.00;;;38.10;73.50;;;;;;5029142;28;20069;-68
2022/09/19 12:47:08;;;;;;;2.97;1.10;;;37.60;70.40;;;;;;5018856;28;20678;-68
2022/09/19 12:50:46;;;;;;;1.80;0.65;;;35.90;70.00;;;;;;5028710;28;20053;-69
2022/09/19 12:54:22;;;;;;;2.78;1.10;;;36.30;69.60;;;;;;5027210;28;20044;-68
2022/09/19 12:57:46;;;;;;;1.48;0.82;;;33.30;69.20;;;;;;5023184;28;20047;-68
2022/09/19 13:01:20;;;;;;;2.85;0.90;;;35.70;69.90;;;;;;5026621;28;20115;-69
2022/09/19 13:05:02;;;;;;;2.25;1.00;;;36.10;67.60;;;;;;5025430;28;20052;-68
2022/09/19 13:08:12;;;;;;;3.83;0.93;;;35.30;68.00;;;;;;5026279;28;20047;-68
2022/09/19 13:11:29;;;;;;;;;;;36.00;68.40;;;;;;5029231;28;20503;-68
2022/09/19 13:14:38;;;;;;;7.13;1.17;;;34.90;69.40;;;;;;5025300;28;19916;-68
2022/09/19 13:28:28;;;;;;;1.98;0.95;;;35.90;69.80;;;;;;5029224;28;20045;-68
2022/09/19 13:32:11;;;;;;;2.40;0.98;;;38.00;68.30;;;;;;5022581;28;20044;-68
2022/09/19 13:39:49;;;;;;;2.80;1.02;;;41.40;64.10;;;;;;5028734;28;20040;-66
2022/09/19 13:43:41;;;;;;;3.95;1.20;;;42.40;61.70;;;;;;5029632;28;20053;-66
2022/09/19 13:47:10;;;;;;;2.58;1.08;;;42.40;61.70;;;;;;5028172;28;20041;-69
2022/09/19 13:54:22;;;;;;;3.05;1.00;;;37.80;62.10;;;;;;5029221;28;20048;-68
2022/09/19 13:57:46;;;;;;;4.00;1.30;;;37.60;63.10;;;;;;5029810;28;20044;-68
2022/09/19 14:01:12;;;;;;;7.22;1.35;;;37.70;63.30;;;;;;5026208;28;20048;-69
2022/09/19 14:07:57;;;;;;;3.15;1.20;;;37.40;64.00;;;;;;5030075;28;20396;-68
2022/09/19 14:11:03;;;;;;;4.70;1.42;;;33.90;63.50;;;;;;5030362;28;20503;-68
2022/09/19 14:14:36;;;;;;;2.42;1.00;;;32.00;67.40;;;;;;5026980;28;20332;-69
2022/09/19 14:18:12;;;;;;;2.67;1.10;;;32.30;67.00;;;;;;5026789;28;20666;-69
2022/09/19 14:21:35;;;;;;;5.30;1.40;;;32.90;68.40;;;;;;5028797;28;20460;-68
2022/09/19 14:24:46;;;;;;;5.18;1.30;;;33.00;67.50;;;;;;5021700;28;20062;-68
2022/09/19 14:28:26;;;;;;;4.50;1.25;;;30.00;71.30;;;;;;5029660;28;20060;-68
2022/09/19 14:31:49;;;;;;;5.45;1.23;;;31.50;71.40;;;;;;5010825;28;20049;-68
2022/09/19 14:35:04;;;;;;;4.80;1.10;;;32.90;70.00;;;;;;5029406;28;20036;-67
2022/09/19 14:38:25;;;;;;;5.22;1.50;;;32.80;70.90;;;;;;5034372;28;20044;-68
2022/09/19 14:42:04;;;;;;;4.10;1.55;;;29.70;72.80;;;;;;5034248;28;20049;-67
2022/09/19 14:49:09;;;;;;;3.17;1.30;;;27.60;77.80;;;;;;5033725;28;20049;-67
2022/09/19 14:52:19;;;;;;;6.95;1.52;;;27.10;79.80;;;;;;5032393;28;20049;-68
2022/09/19 14:55:45;;;;;;;2.80;1.20;;;27.30;79.90;;;;;;5034005;28;20495;-68
2022/09/19 14:58:50;;;;;;;4.90;1.23;;;27.40;80.20;;;;;;5033909;28;20040;-68
2022/09/19 15:02:18;;;;;;;5.95;1.35;;;27.50;81.20;;;;;;5030777;28;20036;-68
2022/09/19 15:05:31;;;;;;;2.22;1.10;;;28.10;81.10;;;;;;5011352;28;20048;-68
2022/09/19 15:08:46;;;;;;;2.30;1.10;;;28.50;80.40;;;;;;5031651;28;20041;-68
2022/09/19 15:11:55;;;;;;;4.20;1.20;;;28.60;79.50;;;;;;5015308;28;20048;-67
2022/09/19 15:15:00;;;;;;;5.70;1.38;;;27.60;79.80;;;;;;5031124;28;20044;-68
2022/09/19 15:18:19;;;;;;;3.25;1.27;;;27.20;80.60;;;;;;5029891;28;20040;-68
2022/09/19 15:21:34;;;;;;;5.25;1.23;;;27.00;82.10;;;;;;5030970;28;20414;-68
2022/09/19 15:28:52;;;;;;;5.10;1.40;;;26.80;83.40;;;;;;5025044;28;20049;-67
2022/09/19 15:32:49;;;;;;;4.13;1.38;;;26.90;83.40;;;;;;5030338;28;20048;-68
2022/09/19 15:35:58;;;;;;;5.47;1.35;;;26.90;83.80;;;;;;5031226;28;20044;-67
2022/09/19 15:39:21;;;;;;;6.45;1.77;;;26.80;83.80;;;;;;5028312;28;20049;-68
2022/09/19 15:42:45;;;;;;;6.95;1.67;;;26.90;83.90;;;;;;5021618;28;20040;-68
2022/09/19 15:53:44;;;;;;;10.35;3.70;;;27.00;83.70;;;;;;5000485;28;20389;-67
2022/09/19 15:57:38;;;;;;;6.32;3.08;;;27.20;84.00;;;;;;5020206;28;20040;-68
2022/09/19 16:00:44;;;;;;;6.30;2.13;;;27.20;83.20;;;;;;5042182;28;20048;-67
2022/09/19 16:04:13;;;;;;;3.33;1.63;;;27.10;83.40;;;;;;5023074;28;20052;-68
2022/09/19 16:15:15;;;;;;;7.40;1.30;;;26.50;85.30;;;;;;5031325;28;20052;-68
2022/09/19 16:18:48;;;;;;;4.18;1.33;;;26.40;85.00;;;;;;5032380;28;20041;-67
2022/09/19 16:22:19;;;;;;;3.70;1.55;;;26.30;85.70;;;;;;5032782;28;20396;-68
2022/09/19 16:25:23;;;;;;;2.65;1.45;;;26.10;86.70;;;;;;5032002;28;20036;-68
2022/09/19 16:31:56;;;;;;;3.50;1.40;;;25.80;88.60;;;;;;5032339;28;20052;-68
2022/09/19 16:35:02;;;;;;;3.70;1.63;;;25.60;88.60;;;;;;5032390;28;20036;-68
2022/09/19 16:38:07;;;;;;;5.95;1.70;;;25.60;88.20;;;;;;5032331;28;20053;-68
2022/09/19 16:41:22;;;;;;;5.15;2.47;;;25.40;89.40;;;;;;5031631;28;20047;-68
2022/09/19 16:47:58;;;;;;;6.75;2.60;;;25.20;89.80;;;;;;5031945;28;20052;-68
2022/09/19 16:51:05;;;;;;;5.68;1.83;;;25.10;89.20;;;;;;5031559;28;20044;-69
2022/09/19 16:54:12;;;;;;;4.57;1.48;;;25.10;89.70;;;;;;5031324;28;20392;-69
2022/09/19 16:57:35;;;;;;;6.82;1.75;;;25.00;89.60;;;;;;5031427;28;20052;-69
2022/09/19 17:04:02;;;;;;;7.05;2.35;;;24.90;90.00;;;;;;5031666;28;20053;-69
2022/09/19 17:07:10;;;;;;;6.22;2.55;;;24.80;90.20;;;;;;5031284;28;20040;-69
2022/09/19 17:10:33;;;;;;;6.43;3.13;;;24.70;91.00;;;;;;5031425;28;20053;-69
2022/09/19 17:13:55;;;;;;;8.82;2.60;;;24.50;91.20;;;;;;5031327;28;20033;-69
2022/09/19 17:17:17;;;;;;;5.68;2.70;;;24.30;92.30;;;;;;5030677;28;20056;-69
2022/09/19 17:20:22;;;;;;;4.28;2.15;;;24.10;92.90;;;;;;5031001;28;20523;-68
2022/09/19 17:23:45;;;;;;;11.80;2.60;;;23.90;92.70;;;;;;5030810;28;20404;-68
2022/09/19 17:26:50;;;;;;;6.30;2.17;;;23.70;92.60;;;;;;5031107;28;20048;-69
2022/09/19 17:30:32;;;;;;;3.13;2.10;;;23.50;92.60;;;;;;5030873;28;20049;-68
2022/09/19 17:33:36;;;;;;;6.95;2.20;;;23.50;92.70;;;;;;5030782;28;20044;-69
2022/09/19 17:36:40;;;;;;;7.68;2.22;;;23.30;93.00;;;;;;5030644;28;20045;-69
2022/09/19 17:40:26;;;;;;;8.30;2.55;;;23.30;92.70;;;;;;5031020;28;20044;-68
2022/09/19 17:43:31;;;;;;;11.52;2.78;;;23.20;93.20;;;;;;5030940;28;20043;-69
2022/09/19 17:47:13;;;;;;;6.60;2.30;;;23.10;93.30;;;;;;5030935;28;20037;-69
2022/09/19 17:53:58;;;;;;;7.20;1.90;;;22.80;93.30;;;;;;5030931;28;20057;-69
2022/09/19 17:57:20;;;;;;;6.93;2.30;;;22.80;93.10;;;;;;5030006;28;20048;-68
2022/09/19 18:00:24;;;;;;;5.95;1.80;;;22.70;93.50;;;;;;5030700;28;20510;-68
2022/09/19 18:03:28;;;;;;;5.50;2.35;;;22.50;93.70;;;;;;5029776;28;20056;-69
2022/09/19 18:06:51;;;;;;;5.28;2.28;;;22.30;94.20;;;;;;5029389;28;20056;-68
2022/09/19 18:09:55;;;;;;;5.88;2.22;;;22.20;94.50;;;;;;5033216;28;20040;-68
2022/09/19 18:13:18;;;;;;;5.15;1.70;;;22.10;95.10;;;;;;5034275;28;20044;-68
2022/09/19 18:16:22;;;;;;;5.55;2.30;;;22.00;95.30;;;;;;5034461;28;20045;-68
2022/09/19 18:19:26;;;;;;;5.55;2.80;;;22.00;95.30;;;;;;5034725;28;20045;-68
2022/09/19 18:22:30;;;;;;;3.55;1.88;;;21.90;95.90;;;;;;5034360;28;20506;-69
2022/09/19 18:25:36;;;;;;;9.07;2.80;;;21.80;96.30;;;;;;5034254;28;20044;-68
2022/09/19 18:28:59;;;;;;;10.13;3.80;;;21.80;96.80;;;;;;5034218;28;20056;-68
2022/09/19 18:35:44;;;;;;;10.20;3.28;;;21.90;97.30;;;;;;5033983;28;20044;-69
2022/09/19 18:38:50;;;;;;;7.32;3.15;;;21.80;97.20;;;;;;5034173;28;20480;-69
2022/09/19 18:42:13;;;;;;;9.02;3.45;;;21.80;97.60;;;;;;5034158;28;20044;-68
2022/09/19 18:46:18;;;;;;;10.40;3.88;;;21.70;98.30;;;;;;5034136;28;20400;-68
2022/09/19 18:49:23;;;;;;;29.23;10.52;;;21.40;99.20;;;;;;5034095;28;20029;-69
2022/09/19 18:52:46;;;;;;;18.05;5.60;;;21.00;99.90;;;;;;5034157;28;20044;-69
2022/09/19 18:55:55;;;;;;;13.20;4.85;;;20.90;99.90;;;;;;5033621;28;20448;-68
2022/09/19 18:59:18;;;;;;;38.17;13.40;;;20.70;99.90;;;;;;5034205;28;20036;-68
2022/09/19 19:02:23;;;;;;;23.90;8.63;;;20.50;99.90;;;;;;5033057;28;20032;-69
2022/09/19 19:09:27;;;;;;;9.52;3.85;;;20.30;99.90;;;;;;5033741;28;20056;-69
2022/09/19 19:12:50;;;;;;;5.95;2.53;;;20.20;99.90;;;;;;5033813;28;20499;-68
2022/09/19 19:16:33;;;;;;;40.88;15.25;;;20.20;99.90;;;;;;5033116;28;20031;-68
2022/09/19 19:19:37;;;;;;;56.95;17.55;;;20.10;99.90;;;;;;5033219;28;20040;-68
2022/09/19 19:22:41;;;;;;;23.17;8.85;;;20.00;99.90;;;;;;5033319;28;20060;-68
2022/09/19 19:25:45;;;;;;;8.00;3.78;;;19.90;99.90;;;;;;5033451;28;20036;-68
2022/09/19 19:29:07;;;;;;;6.72;2.75;;;19.90;99.90;;;;;;5033312;28;20044;-68
2022/09/19 19:32:30;;;;;;;8.63;2.75;;;19.90;99.90;;;;;;5033036;28;20048;-68
2022/09/19 19:38:58;;;;;;;23.73;7.28;;;19.40;99.90;;;;;;5032489;28;20037;-69
2022/09/19 19:42:02;;;;;;;57.65;19.52;;;19.20;99.90;;;;;;5033192;28;20056;-68
2022/09/19 19:45:25;;;;;;;27.02;10.48;;;19.10;99.90;;;;;;5032876;28;20057;-69
2022/09/19 19:52:15;;;;;;;12.48;4.20;;;19.10;99.90;;;;;;5033102;28;20056;-68
2022/09/19 19:55:19;;;;;;;9.48;3.22;;;19.10;99.90;;;;;;5032927;28;20050;-68
2022/09/19 19:58:24;;;;;;;7.55;2.38;;;19.10;99.90;;;;;;5032962;28;20051;-68
2022/09/19 20:01:47;;;;;;;9.02;2.90;;;19.10;99.90;;;;;;5033151;28;20044;-68
2022/09/19 20:04:51;;;;;;;8.82;2.63;;;19.00;99.90;;;;;;5032413;28;20057;-68